createdAt,value
2019-02-09T00:00:54.100Z,99658.86
2019-02-09T00:03:58.150Z,99656.63
2019-02-09T00:07:02.183Z,99651.56
2019-02-09T00:10:07.677Z,99653.46
2019-02-09T00:13:11.739Z,99647.81
2019-02-09T00:16:15.770Z,99641.39
2019-02-09T00:19:19.827Z,99635.77
2019-02-09T00:22:23.858Z,99632.27
2019-02-09T00:25:27.918Z,99628.55
2019-02-09T00:28:31.981Z,99629.34
2019-02-09T00:31:36.015Z,99615.38
2019-02-09T00:34:40.070Z,99611.11
2019-02-09T00:37:44.104Z,99609.77
2019-02-09T00:40:48.159Z,99596.25
2019-02-09T00:43:52.214Z,99587.69
2019-02-09T00:46:56.247Z,99576.66
2019-02-09T00:50:00.322Z,99579.12
2019-02-09T00:53:04.337Z,99583.75
2019-02-09T00:56:08.397Z,99573.50
2019-02-09T00:59:12.455Z,99573.28
2019-02-09T01:02:16.491Z,99559.78
2019-02-09T01:05:23.084Z,99556.83
2019-02-09T01:08:27.139Z,99559.31
2019-02-09T01:11:31.170Z,99559.31
2019-02-09T01:14:35.231Z,99551.77
2019-02-09T01:17:39.264Z,99541.30
2019-02-09T01:20:43.342Z,99548.05
2019-02-09T01:23:47.395Z,99544.89
2019-02-09T01:26:51.426Z,99540.62
2019-02-09T01:30:02.291Z,99535.44
2019-02-09T01:33:01.210Z,99531.16
2019-02-09T01:36:05.270Z,99525.52
2019-02-09T01:39:09.327Z,99531.72
2019-02-09T01:42:13.362Z,99525.30
2019-02-09T01:45:20.163Z,99519.34
2019-02-09T01:48:24.200Z,99513.27
2019-02-09T01:51:28.254Z,99515.39
2019-02-09T01:54:32.313Z,99497.62
2019-02-09T01:57:36.342Z,99493.56
2019-02-09T02:00:40.399Z,99492.22
2019-02-09T02:03:44.455Z,99496.61
2019-02-09T02:06:48.487Z,99480.95
2019-02-09T02:09:52.541Z,99479.14
2019-02-09T02:12:56.577Z,99459.13
2019-02-09T02:16:01.602Z,99473.98
2019-02-09T02:19:05.660Z,99465.64
2019-02-09T02:22:09.693Z,99465.98
2019-02-09T02:25:13.918Z,99464.62
2019-02-09T02:28:17.953Z,99474.66
2019-02-09T02:31:22.009Z,99465.77
2019-02-09T02:34:26.069Z,99445.52
2019-02-09T02:37:30.100Z,99449.34
2019-02-09T02:40:34.154Z,99435.59
2019-02-09T02:43:38.191Z,99433.45
2019-02-09T02:46:42.250Z,99427.28
2019-02-09T02:49:46.305Z,99426.70
2019-02-09T02:52:50.392Z,99412.19
2019-02-09T02:55:54.391Z,99410.62
2019-02-09T02:58:58.452Z,99403.08
2019-02-09T03:02:02.511Z,99406.58
2019-02-09T03:05:09.574Z,99394.98
2019-02-09T03:08:13.607Z,99379.36
2019-02-09T03:11:17.666Z,99398.47
2019-02-09T03:14:21.718Z,99386.66
2019-02-09T03:17:25.754Z,99379.91
2019-02-09T03:20:29.810Z,99370.25
2019-02-09T03:26:36.795Z,99373.84
2019-02-09T03:29:40.846Z,99381.94
2019-02-09T03:32:44.897Z,99377.09
2019-02-09T03:35:48.937Z,99381.14
2019-02-09T03:38:52.971Z,99375.19
2019-02-09T03:41:57.029Z,99376.87
2019-02-09T03:45:01.100Z,99380.13
2019-02-09T03:48:05.115Z,99372.59
2019-02-09T03:51:09.170Z,99371.82
2019-02-09T03:54:13.232Z,99371.58
2019-02-09T03:57:17.264Z,99362.92
2019-02-09T04:00:22.958Z,99370.01
2019-02-09T04:03:26.995Z,99357.62
2019-02-09T04:06:31.054Z,99359.20
2019-02-09T04:09:35.274Z,99352.22
2019-02-09T04:12:39.308Z,99340.16
2019-02-09T04:15:43.360Z,99333.62
2019-02-09T04:18:47.396Z,99332.28
2019-02-09T04:21:51.448Z,99329.92
2019-02-09T04:24:55.501Z,99324.52
2019-02-09T04:27:59.574Z,99325.66
2019-02-09T04:31:05.739Z,99332.96
2019-02-09T04:34:09.317Z,99329.16
2019-02-09T04:37:13.368Z,99310.59
2019-02-09T04:40:19.857Z,99316.55
2019-02-09T04:43:23.901Z,99309.00
2019-02-09T04:46:27.947Z,99305.75
2019-02-09T04:49:32.026Z,99313.05
2019-02-09T04:52:36.037Z,99299.34
2019-02-09T04:55:40.093Z,99316.33
2019-02-09T04:58:44.132Z,99323.63
2019-02-09T05:01:48.182Z,99302.05
2019-02-09T05:04:52.240Z,99314.74
2019-02-09T05:07:56.277Z,99311.03
2019-02-09T05:11:00.357Z,99311.59
2019-02-09T05:14:04.393Z,99321.03
2019-02-09T05:17:08.453Z,99311.59
2019-02-09T05:20:14.940Z,99296.53
2019-02-09T05:23:18.978Z,99305.18
2019-02-09T05:26:23.028Z,99304.41
2019-02-09T05:29:27.066Z,99312.51
2019-02-09T05:32:31.132Z,99307.11
2019-02-09T05:35:35.174Z,99309.81
2019-02-09T05:38:39.500Z,99316.55
2019-02-09T05:41:43.557Z,99311.71
2019-02-09T05:44:47.618Z,99311.50
2019-02-09T05:47:51.647Z,99304.50
2019-02-09T05:50:55.704Z,99304.50
2019-02-09T05:53:59.733Z,99309.91
2019-02-09T05:57:03.790Z,99305.40
2019-02-09T06:00:14.227Z,99306.99
2019-02-09T06:03:18.258Z,99301.14
2019-02-09T06:06:22.314Z,99309.23
2019-02-09T06:09:26.349Z,99315.98
2019-02-09T06:12:30.407Z,99320.58
2019-02-09T06:15:34.456Z,99332.73
2019-02-09T06:18:38.500Z,99340.27
2019-02-09T06:21:42.574Z,99350.86
2019-02-09T06:24:46.610Z,99351.96
2019-02-09T06:27:50.665Z,99372.20
2019-02-09T06:30:54.722Z,99347.70
2019-02-09T06:33:58.795Z,99311.60
2019-02-09T06:37:02.841Z,99317.77
2019-02-09T06:40:13.408Z,99320.46
2019-02-09T06:43:17.438Z,99327.55
2019-02-09T06:46:21.496Z,99323.29
2019-02-09T06:49:25.526Z,99324.09
2019-02-09T06:52:29.584Z,99325.98
2019-02-09T06:55:33.637Z,99325.19
2019-02-09T06:58:37.674Z,99333.28
2019-02-09T07:01:48.605Z,99334.63
2019-02-09T07:04:47.462Z,99341.97
2019-02-09T07:07:51.522Z,99332.86
2019-02-09T07:10:55.571Z,99324.76
2019-02-09T07:13:59.602Z,99325.86
2019-02-09T07:17:03.657Z,99324.52
2019-02-09T07:20:10.539Z,99327.77
2019-02-09T07:23:15.058Z,99332.61
2019-02-09T07:26:19.109Z,99332.16
2019-02-09T07:29:23.140Z,99335.09
2019-02-09T07:32:27.197Z,99330.80
2019-02-09T07:35:31.258Z,99341.59
2019-02-09T07:38:35.282Z,99342.95
2019-02-09T07:41:39.337Z,99346.78
2019-02-09T07:44:43.372Z,99352.17
2019-02-09T07:47:47.427Z,99354.88
2019-02-09T07:50:51.482Z,99351.38
2019-02-09T07:53:55.514Z,99360.83
2019-02-09T07:56:59.570Z,99358.70
2019-02-09T08:00:03.769Z,99370.85
2019-02-09T08:03:07.824Z,99365.45
2019-02-09T08:06:11.912Z,99378.70
2019-02-09T08:09:15.947Z,99373.30
2019-02-09T08:12:19.998Z,99372.53
2019-02-09T08:15:25.971Z,99371.19
2019-02-09T08:18:30.026Z,99371.73
2019-02-09T08:21:34.079Z,99371.73
2019-02-09T08:24:38.109Z,99381.19
2019-02-09T08:27:42.166Z,99372.75
2019-02-09T08:30:47.834Z,99392.86
2019-02-09T08:33:51.890Z,99379.88
2019-02-09T08:36:55.948Z,99392.13
2019-02-09T08:39:59.980Z,99387.12
2019-02-09T08:43:04.037Z,99381.55
2019-02-09T08:46:08.102Z,99379.31
2019-02-09T08:49:12.143Z,99356.18
2019-02-09T08:52:16.202Z,99380.92
2019-02-09T08:55:20.239Z,99390.02
2019-02-09T08:58:24.292Z,99414.02
2019-02-09T09:01:28.352Z,99410.84
2019-02-09T09:04:32.386Z,99422.89
2019-02-09T09:07:36.441Z,99394.39
2019-02-09T09:10:40.481Z,99392.67
2019-02-09T09:13:44.539Z,99402.60
2019-02-09T09:16:48.597Z,99399.00
2019-02-09T09:19:52.629Z,99395.39
2019-02-09T09:22:56.687Z,99401.45
2019-02-09T09:26:00.723Z,99407.87
2019-02-09T09:29:04.792Z,99405.87
2019-02-09T09:32:08.845Z,99402.36
2019-02-09T09:35:12.878Z,99404.41
2019-02-09T09:38:16.934Z,99412.30
2019-02-09T09:41:20.996Z,99416.12
2019-02-09T09:44:25.030Z,99407.11
2019-02-09T09:47:29.089Z,99407.11
2019-02-09T09:50:33.137Z,99418.38
2019-02-09T09:53:37.175Z,99422.98
2019-02-09T09:56:41.322Z,99424.80
2019-02-09T09:59:45.355Z,99427.25
2019-02-09T10:02:49.406Z,99427.84
2019-02-09T10:05:53.441Z,99439.77
2019-02-09T10:08:57.492Z,99439.00
2019-02-09T10:12:01.555Z,99438.75
2019-02-09T10:15:08.845Z,99444.60
2019-02-09T10:18:12.903Z,99444.06
2019-02-09T10:21:16.933Z,99450.02
2019-02-09T10:24:20.987Z,99448.11
2019-02-09T10:27:25.044Z,99440.78
2019-02-09T10:30:34.073Z,99444.70
2019-02-09T10:33:38.123Z,99437.71
2019-02-09T10:36:42.180Z,99446.96
2019-02-09T10:39:46.238Z,99451.02
2019-02-09T10:42:50.295Z,99447.84
2019-02-09T10:45:54.331Z,99451.87
2019-02-09T10:48:58.386Z,99457.50
2019-02-09T10:52:02.441Z,99465.16
2019-02-09T10:55:08.811Z,99454.58
2019-02-09T10:58:12.869Z,99454.81
2019-02-09T11:01:16.904Z,99446.81
2019-02-09T11:04:20.957Z,99452.98
2019-02-09T11:07:25.019Z,99461.34
2019-02-09T11:10:29.059Z,99449.86
2019-02-09T11:13:33.119Z,99452.32
2019-02-09T11:16:37.162Z,99452.22
2019-02-09T11:19:41.219Z,99450.28
2019-02-09T11:22:45.292Z,99452.96
2019-02-09T11:25:49.325Z,99447.31
2019-02-09T11:28:53.383Z,99449.22
2019-02-09T11:31:57.449Z,99442.80
2019-02-09T11:35:01.488Z,99447.66
2019-02-09T11:38:05.615Z,99456.50
2019-02-09T11:41:09.654Z,99458.73
2019-02-09T11:44:13.724Z,99461.53
2019-02-09T11:47:17.782Z,99460.66
2019-02-09T11:50:21.823Z,99449.84
2019-02-09T11:53:25.885Z,99448.80
2019-02-09T11:56:29.923Z,99449.89
2019-02-09T11:59:33.983Z,99446.74
2019-02-09T12:02:38.052Z,99441.58
2019-02-09T12:05:42.091Z,99441.00
2019-02-09T12:08:46.152Z,99433.66
2019-02-09T12:11:50.192Z,99437.88
2019-02-09T12:14:54.262Z,99416.58
2019-02-09T12:19:38.108Z,99454.83
2019-02-09T12:22:42.777Z,99456.87
2019-02-09T12:25:46.824Z,99461.89
2019-02-09T12:28:50.907Z,99456.41
2019-02-09T12:31:54.950Z,99450.34
2019-02-09T12:34:59.019Z,99456.95
2019-02-09T12:38:03.088Z,99448.44
2019-02-09T12:41:07.127Z,99454.00
2019-02-09T12:44:11.189Z,99463.31
2019-02-09T12:47:15.249Z,99450.08
2019-02-09T12:50:22.195Z,99445.97
2019-02-09T12:53:26.266Z,99445.84
2019-02-09T12:56:30.303Z,99462.77
2019-02-09T12:59:34.367Z,99468.56
2019-02-09T13:02:38.477Z,99457.55
2019-02-09T13:05:42.481Z,99466.48
2019-02-09T13:08:46.538Z,99455.67
2019-02-09T13:11:50.580Z,99456.09
2019-02-09T13:14:54.636Z,99450.33
2019-02-09T13:17:58.702Z,99456.73
2019-02-09T13:21:02.748Z,99457.70
2019-02-09T13:24:06.820Z,99450.19
2019-02-09T13:27:10.853Z,99449.77
2019-02-09T13:30:20.524Z,99456.56
2019-02-09T13:33:24.580Z,99453.31
2019-02-09T13:36:28.619Z,99454.23
2019-02-09T13:39:32.678Z,99457.52
2019-02-09T13:42:36.714Z,99453.20
2019-02-09T13:45:45.946Z,99465.57
2019-02-09T13:48:50.004Z,99453.54
2019-02-09T13:51:54.064Z,99470.42
2019-02-09T13:54:58.126Z,99441.38
2019-02-09T13:58:02.185Z,99473.02
2019-02-09T14:01:06.222Z,99458.03
2019-02-09T14:04:10.279Z,99464.17
2019-02-09T14:07:14.319Z,99469.19
2019-02-09T14:10:26.706Z,99469.95
2019-02-09T14:13:30.768Z,99472.61
2019-02-09T14:16:38.830Z,99484.69
2019-02-09T14:19:40.556Z,99495.30
2019-02-09T14:22:44.593Z,99528.59
2019-02-09T14:25:48.654Z,99503.09
2019-02-09T14:28:52.718Z,99498.30
2019-02-09T14:31:57.399Z,99500.77
2019-02-09T14:35:01.492Z,99497.95
2019-02-09T14:38:05.553Z,99490.64
2019-02-09T14:41:09.588Z,99498.03
2019-02-09T14:44:13.659Z,99516.77
2019-02-09T14:47:17.696Z,99511.49
2019-02-09T14:50:21.753Z,99521.01
2019-02-09T14:53:25.822Z,99524.20
2019-02-09T14:56:29.859Z,99534.12
2019-02-09T14:59:33.923Z,99554.07
2019-02-09T15:02:37.963Z,99555.84
2019-02-09T15:05:42.032Z,99557.75
2019-02-09T15:08:46.081Z,99542.25
2019-02-09T15:11:50.120Z,99564.22
2019-02-09T15:14:54.177Z,99560.11
2019-02-09T15:17:58.215Z,99565.05
2019-02-09T15:21:05.477Z,99569.28
2019-02-09T15:24:09.539Z,99568.53
2019-02-09T15:27:13.578Z,99582.81
2019-02-09T15:30:23.424Z,99584.36
2019-02-09T15:33:27.528Z,99584.02
2019-02-09T15:36:31.523Z,99584.75
2019-02-09T15:39:35.584Z,99582.16
2019-02-09T15:42:39.656Z,99591.74
2019-02-09T15:45:43.716Z,99581.39
2019-02-09T15:48:47.778Z,99592.95
2019-02-09T15:51:51.813Z,99593.52
2019-02-09T15:54:55.877Z,99594.12
2019-02-09T15:57:59.929Z,99606.78
2019-02-09T16:01:03.985Z,99604.44
2019-02-09T16:04:08.047Z,99598.30
2019-02-09T16:07:12.085Z,99616.81
2019-02-09T16:10:18.877Z,99610.23
2019-02-09T16:13:22.913Z,99607.63
2019-02-09T16:16:26.973Z,99601.14
2019-02-09T16:19:31.039Z,99602.56
2019-02-09T16:22:35.079Z,99606.68
2019-02-09T16:25:39.136Z,99599.97
2019-02-09T16:28:43.231Z,99602.69
2019-02-09T16:31:47.289Z,99616.02
2019-02-09T16:34:51.370Z,99606.88
2019-02-09T16:37:55.461Z,99615.95
2019-02-09T16:40:59.509Z,99630.47
2019-02-09T16:44:03.548Z,99623.98
2019-02-09T16:47:07.676Z,99629.52
2019-02-09T16:50:12.769Z,99622.22
2019-02-09T16:53:16.809Z,99636.61
2019-02-09T16:56:20.865Z,99649.86
2019-02-09T16:59:24.896Z,99653.12
2019-02-09T17:02:28.948Z,99655.99
2019-02-09T17:05:33.070Z,99660.95
2019-02-09T17:08:37.096Z,99675.34
2019-02-09T17:11:41.162Z,99687.72
2019-02-09T17:14:45.285Z,99679.81
2019-02-09T17:17:49.333Z,99691.36
2019-02-09T17:20:53.388Z,99694.38
2019-02-09T17:23:57.424Z,99707.28
2019-02-09T17:27:01.484Z,99708.76
2019-02-09T17:30:25.371Z,99715.02
2019-02-09T17:33:29.401Z,99714.84
2019-02-09T17:36:33.455Z,99690.84
2019-02-09T17:39:37.494Z,99730.31
2019-02-09T17:42:41.567Z,99739.75
2019-02-09T17:45:54.529Z,99750.23
2019-02-09T17:48:58.559Z,99751.88
2019-02-09T17:52:02.616Z,99761.16
2019-02-09T17:55:09.947Z,99768.82
2019-02-09T17:58:14.002Z,99758.79
2019-02-09T18:01:18.058Z,99755.14
2019-02-09T18:04:22.087Z,99765.53
2019-02-09T18:07:26.145Z,99773.44
2019-02-09T18:10:30.205Z,99775.23
2019-02-09T18:13:34.304Z,99769.70
2019-02-09T18:16:38.369Z,99767.45
2019-02-09T18:19:42.404Z,99770.30
2019-02-09T18:22:46.460Z,99776.09
2019-02-09T18:25:50.512Z,99776.31
2019-02-09T18:28:54.548Z,99783.62
2019-02-09T18:31:58.597Z,99777.26
2019-02-09T18:35:02.631Z,99785.17
2019-02-09T18:38:06.688Z,99777.48
2019-02-09T18:41:10.745Z,99779.98
2019-02-09T18:44:14.775Z,99781.16
2019-02-09T18:47:18.833Z,99783.05
2019-02-09T18:50:31.026Z,99789.53
2019-02-09T18:53:35.081Z,99785.88
2019-02-09T18:56:39.138Z,99773.84
2019-02-09T18:59:43.171Z,99787.17
2019-02-09T19:02:47.234Z,99807.94
2019-02-09T19:05:51.288Z,99805.94
2019-02-09T19:08:55.319Z,99809.66
2019-02-09T19:11:59.371Z,99813.08
2019-02-09T19:15:05.099Z,99811.37
2019-02-09T19:18:09.162Z,99815.41
2019-02-09T19:21:13.211Z,99819.89
2019-02-09T19:24:17.242Z,99817.56
2019-02-09T19:27:21.295Z,99815.09
2019-02-09T19:30:26.564Z,99825.59
2019-02-09T19:33:30.620Z,99830.91
2019-02-09T19:36:34.654Z,99833.63
2019-02-09T19:39:38.707Z,99844.98
2019-02-09T19:42:43.432Z,99848.52
2019-02-09T19:45:47.464Z,99842.63
2019-02-09T19:48:51.520Z,99852.77
2019-02-09T19:51:55.556Z,99854.30
2019-02-09T19:54:59.607Z,99859.13
2019-02-09T19:58:04.031Z,99857.84
2019-02-09T20:01:08.095Z,99870.34
2019-02-09T20:04:12.147Z,99871.16
2019-02-09T20:07:16.180Z,99867.51
2019-02-09T20:10:31.652Z,99879.30
2019-02-09T20:13:35.709Z,99886.61
2019-02-09T20:16:39.741Z,99884.97
2019-02-09T20:19:43.802Z,99891.25
2019-02-09T20:22:47.834Z,99889.13
2019-02-09T20:25:51.984Z,99893.60
2019-02-09T20:28:56.048Z,99893.02
2019-02-09T20:32:00.081Z,99908.58
2019-02-09T20:35:07.032Z,99902.21
2019-02-09T20:38:11.067Z,99904.92
2019-02-09T20:41:15.170Z,99901.63
2019-02-09T20:44:19.261Z,99913.30
2019-02-09T20:47:23.294Z,99912.94
2019-02-09T20:50:27.349Z,99926.89
2019-02-09T20:53:31.409Z,99929.48
2019-02-09T20:56:35.440Z,99938.20
2019-02-09T20:59:39.505Z,99925.35
2019-02-09T21:02:43.533Z,99942.69
2019-02-09T21:05:47.645Z,99937.14
2019-02-09T21:08:51.758Z,99941.73
2019-02-09T21:11:55.789Z,99942.69
2019-02-09T21:14:59.839Z,99955.41
2019-02-09T21:18:04.240Z,99956.59
2019-02-09T21:21:08.300Z,99952.58
2019-02-09T21:24:12.332Z,99956.00
2019-02-09T21:27:16.388Z,99958.59
2019-02-09T21:30:22.840Z,99947.07
2019-02-09T21:33:26.873Z,99950.95
2019-02-09T21:36:30.928Z,99958.73
2019-02-09T21:39:34.956Z,99959.69
2019-02-09T21:42:39.008Z,99956.37
2019-02-09T21:45:45.446Z,99954.14
2019-02-09T21:48:48.803Z,99962.86
2019-02-09T21:51:52.862Z,99962.86
2019-02-09T21:54:56.916Z,99968.99
2019-02-09T21:58:00.947Z,99969.58
2019-02-09T22:01:05.004Z,99967.92
2019-02-09T22:04:09.037Z,99973.11
2019-02-09T22:07:13.097Z,99981.83
2019-02-09T22:10:20.383Z,99980.21
2019-02-09T22:13:24.448Z,99987.63
2019-02-09T22:16:28.544Z,99986.20
2019-02-09T22:19:32.539Z,99993.17
2019-02-09T22:22:36.598Z,99995.06
2019-02-09T22:25:40.626Z,99989.88
2019-02-09T22:28:44.677Z,99997.88
2019-02-09T22:31:48.732Z,99996.00
2019-02-09T22:34:52.770Z,100003.06
2019-02-09T22:37:56.988Z,99993.52
2019-02-09T22:41:01.018Z,99993.63
2019-02-09T22:44:05.075Z,100000.11
2019-02-09T22:47:09.128Z,99996.95
2019-02-09T22:50:21.202Z,100008.84
2019-02-09T22:53:25.256Z,99999.88
2019-02-09T22:56:29.310Z,99999.30
2019-02-09T22:59:33.346Z,100005.43
2019-02-09T23:02:37.402Z,99994.59
2019-02-09T23:06:08.054Z,100000.60
2019-02-09T23:09:11.805Z,100006.73
2019-02-09T23:12:15.863Z,100009.91
2019-02-09T23:15:19.903Z,100017.32
2019-02-09T23:18:23.960Z,100016.03
2019-02-09T23:21:27.997Z,100022.04
2019-02-09T23:24:32.062Z,100024.41
2019-02-09T23:27:36.118Z,100014.38
2019-02-09T23:30:40.153Z,100012.39
2019-02-09T23:33:44.210Z,100011.78
2019-02-09T23:36:48.243Z,100014.16
2019-02-09T23:39:52.308Z,100015.92
2019-02-09T23:42:56.341Z,100022.15
2019-02-09T23:46:00.397Z,100021.83
2019-02-09T23:49:04.432Z,100014.85
2019-02-09T23:52:08.493Z,100022.98
2019-02-09T23:55:12.552Z,100021.22
2019-02-09T23:58:16.589Z,100013.20
